sensor_id;sensor_type;location;lat;lon;timestamp;P1;durP1;ratioP1;P2;durP2;ratioP2
50128;SDS011;36026;45.478;9.224;2022-12-07T00:01:05;38.22;;;21.88;;
50128;SDS011;36026;45.478;9.224;2022-12-07T00:04:11;36.25;;;22.25;;
50128;SDS011;36026;45.478;9.224;2022-12-07T00:07:14;35.90;;;21.70;;
50128;SDS011;36026;45.478;9.224;2022-12-07T00:10:15;39.33;;;24.02;;
50128;SDS011;36026;45.478;9.224;2022-12-07T00:13:17;54.47;;;29.45;;
50128;SDS011;36026;45.478;9.224;2022-12-07T00:16:19;50.90;;;29.73;;
50128;SDS011;36026;45.478;9.224;2022-12-07T00:19:23;75.05;;;36.67;;
50128;SDS011;36026;45.478;9.224;2022-12-07T00:22:24;64.68;;;31.98;;
50128;SDS011;36026;45.478;9.224;2022-12-07T00:25:26;53.53;;;28.38;;
50128;SDS011;36026;45.478;9.224;2022-12-07T00:28:28;56.25;;;27.92;;
50128;SDS011;36026;45.478;9.224;2022-12-07T00:31:32;46.53;;;24.75;;
50128;SDS011;36026;45.478;9.224;2022-12-07T00:34:40;41.45;;;23.40;;
50128;SDS011;36026;45.478;9.224;2022-12-07T00:37:41;46.45;;;27.40;;
50128;SDS011;36026;45.478;9.224;2022-12-07T00:40:43;41.22;;;24.27;;
50128;SDS011;36026;45.478;9.224;2022-12-07T00:43:45;34.97;;;21.33;;
50128;SDS011;36026;45.478;9.224;2022-12-07T00:46:47;37.53;;;21.77;;
50128;SDS011;36026;45.478;9.224;2022-12-07T00:49:51;37.88;;;20.73;;
50128;SDS011;36026;45.478;9.224;2022-12-07T00:52:52;33.40;;;20.88;;
50128;SDS011;36026;45.478;9.224;2022-12-07T00:55:54;35.53;;;21.58;;
50128;SDS011;36026;45.478;9.224;2022-12-07T00:58:57;37.97;;;21.67;;
50128;SDS011;36026;45.478;9.224;2022-12-07T01:02:00;37.97;;;21.80;;
50128;SDS011;36026;45.478;9.224;2022-12-07T01:05:03;36.97;;;21.27;;
50128;SDS011;36026;45.478;9.224;2022-12-07T01:08:05;37.63;;;21.60;;
50128;SDS011;36026;45.478;9.224;2022-12-07T01:11:09;37.38;;;22.30;;
50128;SDS011;36026;45.478;9.224;2022-12-07T01:14:13;40.53;;;23.45;;
50128;SDS011;36026;45.478;9.224;2022-12-07T01:17:15;32.88;;;22.00;;
50128;SDS011;36026;45.478;9.224;2022-12-07T01:20:18;47.10;;;22.77;;
50128;SDS011;36026;45.478;9.224;2022-12-07T01:23:20;38.15;;;22.02;;
50128;SDS011;36026;45.478;9.224;2022-12-07T01:26:23;31.67;;;20.67;;
50128;SDS011;36026;45.478;9.224;2022-12-07T01:29:25;39.08;;;22.58;;
50128;SDS011;36026;45.478;9.224;2022-12-07T01:32:27;42.33;;;22.65;;
50128;SDS011;36026;45.478;9.224;2022-12-07T01:35:30;41.47;;;23.02;;
50128;SDS011;36026;45.478;9.224;2022-12-07T01:38:34;37.97;;;22.65;;
50128;SDS011;36026;45.478;9.224;2022-12-07T01:41:37;35.30;;;22.25;;
50128;SDS011;36026;45.478;9.224;2022-12-07T01:48:15;36.63;;;23.58;;
50128;SDS011;36026;45.478;9.224;2022-12-07T01:51:20;37.60;;;22.90;;
50128;SDS011;36026;45.478;9.224;2022-12-07T01:54:21;33.20;;;21.42;;
50128;SDS011;36026;45.478;9.224;2022-12-07T01:57:23;39.58;;;22.40;;
50128;SDS011;36026;45.478;9.224;2022-12-07T02:00:25;34.70;;;22.45;;
50128;SDS011;36026;45.478;9.224;2022-12-07T02:03:29;36.50;;;21.60;;
50128;SDS011;36026;45.478;9.224;2022-12-07T02:06:35;33.47;;;21.60;;
50128;SDS011;36026;45.478;9.224;2022-12-07T02:09:37;37.75;;;21.65;;
50128;SDS011;36026;45.478;9.224;2022-12-07T02:12:39;37.30;;;22.33;;
50128;SDS011;36026;45.478;9.224;2022-12-07T02:22:47;31.67;;;21.77;;
50128;SDS011;36026;45.478;9.224;2022-12-07T02:26:21;37.42;;;22.40;;
50128;SDS011;36026;45.478;9.224;2022-12-07T02:29:31;37.92;;;22.92;;
50128;SDS011;36026;45.478;9.224;2022-12-07T02:32:40;39.72;;;22.98;;
50128;SDS011;36026;45.478;9.224;2022-12-07T02:35:45;35.35;;;22.30;;
50128;SDS011;36026;45.478;9.224;2022-12-07T02:38:50;34.67;;;21.70;;
50128;SDS011;36026;45.478;9.224;2022-12-07T02:41:56;40.25;;;23.27;;
50128;SDS011;36026;45.478;9.224;2022-12-07T02:45:00;35.97;;;22.55;;
50128;SDS011;36026;45.478;9.224;2022-12-07T02:48:03;35.35;;;23.27;;
50128;SDS011;36026;45.478;9.224;2022-12-07T02:51:06;38.78;;;24.02;;
50128;SDS011;36026;45.478;9.224;2022-12-07T02:54:09;34.45;;;22.10;;
50128;SDS011;36026;45.478;9.224;2022-12-07T02:57:25;35.13;;;22.58;;
50128;SDS011;36026;45.478;9.224;2022-12-07T03:00:36;37.28;;;23.15;;
50128;SDS011;36026;45.478;9.224;2022-12-07T03:03:54;34.05;;;21.77;;
50128;SDS011;36026;45.478;9.224;2022-12-07T03:07:00;33.95;;;22.30;;
50128;SDS011;36026;45.478;9.224;2022-12-07T03:10:07;38.75;;;22.33;;
50128;SDS011;36026;45.478;9.224;2022-12-07T03:13:17;36.13;;;23.33;;
50128;SDS011;36026;45.478;9.224;2022-12-07T03:16:25;36.63;;;22.45;;
50128;SDS011;36026;45.478;9.224;2022-12-07T03:19:28;37.67;;;24.33;;
50128;SDS011;36026;45.478;9.224;2022-12-07T03:22:32;38.95;;;23.77;;
50128;SDS011;36026;45.478;9.224;2022-12-07T03:25:35;37.28;;;23.15;;
50128;SDS011;36026;45.478;9.224;2022-12-07T03:28:41;37.33;;;23.15;;
50128;SDS011;36026;45.478;9.224;2022-12-07T03:31:47;38.80;;;24.80;;
50128;SDS011;36026;45.478;9.224;2022-12-07T03:37:53;34.83;;;22.75;;
50128;SDS011;36026;45.478;9.224;2022-12-07T03:43:59;38.42;;;23.70;;
50128;SDS011;36026;45.478;9.224;2022-12-07T03:47:03;37.65;;;23.17;;
50128;SDS011;36026;45.478;9.224;2022-12-07T03:50:07;37.80;;;24.27;;
50128;SDS011;36026;45.478;9.224;2022-12-07T03:53:13;38.05;;;24.13;;
50128;SDS011;36026;45.478;9.224;2022-12-07T03:56:17;37.95;;;23.70;;
50128;SDS011;36026;45.478;9.224;2022-12-07T03:59:19;37.97;;;23.85;;
50128;SDS011;36026;45.478;9.224;2022-12-07T04:02:22;41.40;;;25.30;;
50128;SDS011;36026;45.478;9.224;2022-12-07T04:05:25;40.88;;;24.50;;
50128;SDS011;36026;45.478;9.224;2022-12-07T04:08:27;42.05;;;26.02;;
50128;SDS011;36026;45.478;9.224;2022-12-07T04:11:29;38.00;;;24.85;;
50128;SDS011;36026;45.478;9.224;2022-12-07T04:14:30;36.83;;;23.70;;
50128;SDS011;36026;45.478;9.224;2022-12-07T04:17:33;34.40;;;24.02;;
50128;SDS011;36026;45.478;9.224;2022-12-07T04:20:35;35.53;;;24.55;;
50128;SDS011;36026;45.478;9.224;2022-12-07T04:23:37;36.00;;;22.83;;
50128;SDS011;36026;45.478;9.224;2022-12-07T04:26:38;40.15;;;24.80;;
50128;SDS011;36026;45.478;9.224;2022-12-07T04:29:40;35.78;;;22.75;;
50128;SDS011;36026;45.478;9.224;2022-12-07T04:32:43;32.42;;;22.10;;
50128;SDS011;36026;45.478;9.224;2022-12-07T04:35:45;35.35;;;22.42;;
50128;SDS011;36026;45.478;9.224;2022-12-07T04:38:47;35.05;;;21.95;;
50128;SDS011;36026;45.478;9.224;2022-12-07T04:41:49;36.10;;;21.60;;
50128;SDS011;36026;45.478;9.224;2022-12-07T04:44:51;34.85;;;22.60;;
50128;SDS011;36026;45.478;9.224;2022-12-07T04:47:54;40.05;;;23.40;;
50128;SDS011;36026;45.478;9.224;2022-12-07T04:50:55;38.67;;;24.40;;
50128;SDS011;36026;45.478;9.224;2022-12-07T04:53:57;38.95;;;24.25;;
50128;SDS011;36026;45.478;9.224;2022-12-07T04:56:59;37.83;;;24.75;;
50128;SDS011;36026;45.478;9.224;2022-12-07T05:00:01;35.83;;;24.00;;
50128;SDS011;36026;45.478;9.224;2022-12-07T05:03:04;41.00;;;25.25;;
50128;SDS011;36026;45.478;9.224;2022-12-07T05:06:06;34.35;;;23.23;;
50128;SDS011;36026;45.478;9.224;2022-12-07T05:09:08;41.38;;;26.70;;
50128;SDS011;36026;45.478;9.224;2022-12-07T05:12:10;39.22;;;25.95;;
50128;SDS011;36026;45.478;9.224;2022-12-07T05:15:11;40.65;;;25.13;;
50128;SDS011;36026;45.478;9.224;2022-12-07T05:18:15;42.55;;;25.67;;
50128;SDS011;36026;45.478;9.224;2022-12-07T05:21:17;42.95;;;25.77;;
50128;SDS011;36026;45.478;9.224;2022-12-07T05:24:19;38.10;;;23.88;;
50128;SDS011;36026;45.478;9.224;2022-12-07T05:27:21;38.35;;;24.08;;
50128;SDS011;36026;45.478;9.224;2022-12-07T05:30:23;41.47;;;25.25;;
50128;SDS011;36026;45.478;9.224;2022-12-07T05:33:26;38.20;;;24.52;;
50128;SDS011;36026;45.478;9.224;2022-12-07T05:36:27;38.08;;;24.58;;
50128;SDS011;36026;45.478;9.224;2022-12-07T05:39:31;41.13;;;23.90;;
50128;SDS011;36026;45.478;9.224;2022-12-07T05:42:32;39.08;;;25.08;;
50128;SDS011;36026;45.478;9.224;2022-12-07T05:45:34;36.65;;;24.23;;
50128;SDS011;36026;45.478;9.224;2022-12-07T05:48:37;41.33;;;23.85;;
50128;SDS011;36026;45.478;9.224;2022-12-07T05:51:39;34.00;;;23.13;;
50128;SDS011;36026;45.478;9.224;2022-12-07T05:54:41;36.00;;;22.23;;
50128;SDS011;36026;45.478;9.224;2022-12-07T05:57:42;38.90;;;23.10;;
50128;SDS011;36026;45.478;9.224;2022-12-07T06:01:05;39.03;;;24.60;;
50128;SDS011;36026;45.478;9.224;2022-12-07T06:04:07;40.90;;;23.60;;
50128;SDS011;36026;45.478;9.224;2022-12-07T06:07:09;33.65;;;23.00;;
50128;SDS011;36026;45.478;9.224;2022-12-07T06:10:12;35.90;;;22.30;;
50128;SDS011;36026;45.478;9.224;2022-12-07T06:13:14;36.80;;;21.63;;
50128;SDS011;36026;45.478;9.224;2022-12-07T06:16:15;29.98;;;19.80;;
50128;SDS011;36026;45.478;9.224;2022-12-07T06:19:18;38.00;;;22.02;;
50128;SDS011;36026;45.478;9.224;2022-12-07T06:22:20;34.05;;;22.05;;
50128;SDS011;36026;45.478;9.224;2022-12-07T06:25:22;29.60;;;19.38;;
50128;SDS011;36026;45.478;9.224;2022-12-07T06:28:23;34.28;;;19.60;;
50128;SDS011;36026;45.478;9.224;2022-12-07T06:31:26;26.95;;;18.27;;
50128;SDS011;36026;45.478;9.224;2022-12-07T06:34:29;22.58;;;16.58;;
50128;SDS011;36026;45.478;9.224;2022-12-07T06:37:31;26.40;;;15.95;;
50128;SDS011;36026;45.478;9.224;2022-12-07T06:40:32;25.27;;;16.35;;
50128;SDS011;36026;45.478;9.224;2022-12-07T06:43:34;23.50;;;16.83;;
50128;SDS011;36026;45.478;9.224;2022-12-07T06:46:36;24.48;;;16.35;;
50128;SDS011;36026;45.478;9.224;2022-12-07T06:49:39;19.77;;;15.32;;
50128;SDS011;36026;45.478;9.224;2022-12-07T06:52:41;20.38;;;15.02;;
50128;SDS011;36026;45.478;9.224;2022-12-07T06:55:42;21.98;;;15.00;;
50128;SDS011;36026;45.478;9.224;2022-12-07T06:58:44;19.52;;;14.23;;
50128;SDS011;36026;45.478;9.224;2022-12-07T07:01:46;23.15;;;15.05;;
50128;SDS011;36026;45.478;9.224;2022-12-07T07:04:49;20.90;;;15.02;;
50128;SDS011;36026;45.478;9.224;2022-12-07T07:07:51;25.52;;;15.00;;
50128;SDS011;36026;45.478;9.224;2022-12-07T07:10:52;21.20;;;15.60;;
50128;SDS011;36026;45.478;9.224;2022-12-07T07:13:54;22.20;;;14.60;;
50128;SDS011;36026;45.478;9.224;2022-12-07T07:17:02;21.17;;;15.10;;
50128;SDS011;36026;45.478;9.224;2022-12-07T07:20:05;21.98;;;14.93;;
50128;SDS011;36026;45.478;9.224;2022-12-07T07:26:09;22.40;;;13.75;;
50128;SDS011;36026;45.478;9.224;2022-12-07T07:29:11;18.23;;;13.95;;
50128;SDS011;36026;45.478;9.224;2022-12-07T07:32:13;20.88;;;13.63;;
50128;SDS011;36026;45.478;9.224;2022-12-07T07:35:16;20.63;;;13.93;;
50128;SDS011;36026;45.478;9.224;2022-12-07T07:38:17;19.85;;;13.88;;
50128;SDS011;36026;45.478;9.224;2022-12-07T07:41:19;19.45;;;13.70;;
50128;SDS011;36026;45.478;9.224;2022-12-07T07:44:21;23.83;;;14.02;;
50128;SDS011;36026;45.478;9.224;2022-12-07T07:47:23;19.42;;;13.88;;
50128;SDS011;36026;45.478;9.224;2022-12-07T07:50:26;21.42;;;14.25;;
50128;SDS011;36026;45.478;9.224;2022-12-07T07:53:27;21.88;;;14.68;;
50128;SDS011;36026;45.478;9.224;2022-12-07T07:56:29;22.05;;;15.13;;
50128;SDS011;36026;45.478;9.224;2022-12-07T07:59:31;26.13;;;15.13;;
50128;SDS011;36026;45.478;9.224;2022-12-07T08:02:32;28.73;;;16.70;;
50128;SDS011;36026;45.478;9.224;2022-12-07T08:05:35;24.58;;;15.48;;
50128;SDS011;36026;45.478;9.224;2022-12-07T08:08:38;23.87;;;15.73;;
50128;SDS011;36026;45.478;9.224;2022-12-07T08:11:39;23.92;;;15.35;;
50128;SDS011;36026;45.478;9.224;2022-12-07T08:14:41;22.85;;;15.75;;
50128;SDS011;36026;45.478;9.224;2022-12-07T08:17:43;27.13;;;16.63;;
50128;SDS011;36026;45.478;9.224;2022-12-07T08:20:46;30.52;;;17.58;;
50128;SDS011;36026;45.478;9.224;2022-12-07T08:23:47;32.47;;;19.27;;
50128;SDS011;36026;45.478;9.224;2022-12-07T08:26:49;30.92;;;17.35;;
50128;SDS011;36026;45.478;9.224;2022-12-07T08:29:51;30.98;;;17.25;;
50128;SDS011;36026;45.478;9.224;2022-12-07T08:32:52;31.83;;;17.83;;
50128;SDS011;36026;45.478;9.224;2022-12-07T08:35:59;27.13;;;16.77;;
50128;SDS011;36026;45.478;9.224;2022-12-07T08:39:01;26.35;;;17.17;;
50128;SDS011;36026;45.478;9.224;2022-12-07T08:42:03;27.27;;;16.73;;
50128;SDS011;36026;45.478;9.224;2022-12-07T08:45:05;26.17;;;17.08;;
50128;SDS011;36026;45.478;9.224;2022-12-07T08:48:09;27.17;;;15.73;;
50128;SDS011;36026;45.478;9.224;2022-12-07T08:51:13;23.13;;;14.98;;
50128;SDS011;36026;45.478;9.224;2022-12-07T08:54:16;24.13;;;15.20;;
50128;SDS011;36026;45.478;9.224;2022-12-07T08:57:19;24.23;;;16.23;;
50128;SDS011;36026;45.478;9.224;2022-12-07T09:00:21;23.08;;;15.02;;
50128;SDS011;36026;45.478;9.224;2022-12-07T09:03:23;23.42;;;15.15;;
50128;SDS011;36026;45.478;9.224;2022-12-07T09:06:26;22.70;;;15.15;;
50128;SDS011;36026;45.478;9.224;2022-12-07T09:09:28;26.95;;;16.67;;
50128;SDS011;36026;45.478;9.224;2022-12-07T09:12:30;27.58;;;16.83;;
50128;SDS011;36026;45.478;9.224;2022-12-07T09:15:32;24.85;;;16.00;;
50128;SDS011;36026;45.478;9.224;2022-12-07T09:18:33;30.98;;;17.58;;
50128;SDS011;36026;45.478;9.224;2022-12-07T09:21:36;24.35;;;16.35;;
50128;SDS011;36026;45.478;9.224;2022-12-07T09:24:38;28.88;;;17.38;;
50128;SDS011;36026;45.478;9.224;2022-12-07T09:27:40;29.27;;;18.42;;
50128;SDS011;36026;45.478;9.224;2022-12-07T09:30:45;29.90;;;18.52;;
50128;SDS011;36026;45.478;9.224;2022-12-07T09:36:49;25.40;;;17.55;;
50128;SDS011;36026;45.478;9.224;2022-12-07T09:39:51;26.83;;;17.00;;
50128;SDS011;36026;45.478;9.224;2022-12-07T09:42:53;23.48;;;16.65;;
50128;SDS011;36026;45.478;9.224;2022-12-07T09:45:56;30.35;;;17.80;;
50128;SDS011;36026;45.478;9.224;2022-12-07T09:48:58;25.67;;;17.15;;
50128;SDS011;36026;45.478;9.224;2022-12-07T09:52:02;30.73;;;16.92;;
50128;SDS011;36026;45.478;9.224;2022-12-07T09:55:08;26.77;;;16.02;;
50128;SDS011;36026;45.478;9.224;2022-12-07T09:58:12;21.60;;;15.75;;
50128;SDS011;36026;45.478;9.224;2022-12-07T10:01:20;22.35;;;15.40;;
50128;SDS011;36026;45.478;9.224;2022-12-07T10:04:23;22.48;;;14.95;;
50128;SDS011;36026;45.478;9.224;2022-12-07T10:07:28;25.40;;;16.23;;
50128;SDS011;36026;45.478;9.224;2022-12-07T10:10:31;21.77;;;15.55;;
50128;SDS011;36026;45.478;9.224;2022-12-07T10:13:34;25.08;;;16.50;;
50128;SDS011;36026;45.478;9.224;2022-12-07T10:16:38;25.60;;;16.88;;
50128;SDS011;36026;45.478;9.224;2022-12-07T10:19:40;26.90;;;16.58;;
50128;SDS011;36026;45.478;9.224;2022-12-07T10:22:57;26.48;;;17.92;;
50128;SDS011;36026;45.478;9.224;2022-12-07T10:29:21;29.52;;;19.25;;
50128;SDS011;36026;45.478;9.224;2022-12-07T10:32:28;30.85;;;20.23;;
50128;SDS011;36026;45.478;9.224;2022-12-07T10:35:32;29.88;;;19.77;;
50128;SDS011;36026;45.478;9.224;2022-12-07T10:38:38;38.15;;;22.17;;
50128;SDS011;36026;45.478;9.224;2022-12-07T10:41:55;39.42;;;21.77;;
50128;SDS011;36026;45.478;9.224;2022-12-07T10:45:06;39.67;;;22.67;;
50128;SDS011;36026;45.478;9.224;2022-12-07T10:48:10;38.30;;;22.70;;
50128;SDS011;36026;45.478;9.224;2022-12-07T10:54:20;38.60;;;22.45;;
50128;SDS011;36026;45.478;9.224;2022-12-07T10:57:30;36.63;;;23.65;;
50128;SDS011;36026;45.478;9.224;2022-12-07T11:00:39;44.60;;;24.92;;
50128;SDS011;36026;45.478;9.224;2022-12-07T11:03:47;51.33;;;26.08;;
50128;SDS011;36026;45.478;9.224;2022-12-07T11:07:10;48.38;;;27.73;;
50128;SDS011;36026;45.478;9.224;2022-12-07T11:10:17;44.00;;;25.38;;
50128;SDS011;36026;45.478;9.224;2022-12-07T11:13:25;49.60;;;26.33;;
50128;SDS011;36026;45.478;9.224;2022-12-07T11:16:34;48.53;;;25.15;;
50128;SDS011;36026;45.478;9.224;2022-12-07T11:19:49;44.05;;;25.33;;
50128;SDS011;36026;45.478;9.224;2022-12-07T11:23:03;46.85;;;24.60;;
50128;SDS011;36026;45.478;9.224;2022-12-07T11:26:11;43.17;;;25.33;;
50128;SDS011;36026;45.478;9.224;2022-12-07T11:29:22;53.72;;;27.98;;
50128;SDS011;36026;45.478;9.224;2022-12-07T11:32:36;46.90;;;25.65;;
50128;SDS011;36026;45.478;9.224;2022-12-07T11:35:48;45.22;;;24.60;;
50128;SDS011;36026;45.478;9.224;2022-12-07T11:38:54;46.17;;;26.63;;
50128;SDS011;36026;45.478;9.224;2022-12-07T11:42:01;43.20;;;25.73;;
50128;SDS011;36026;45.478;9.224;2022-12-07T11:45:10;46.70;;;26.35;;
50128;SDS011;36026;45.478;9.224;2022-12-07T11:48:15;42.80;;;23.48;;
50128;SDS011;36026;45.478;9.224;2022-12-07T11:51:21;40.92;;;24.23;;
50128;SDS011;36026;45.478;9.224;2022-12-07T11:54:25;36.50;;;21.48;;
50128;SDS011;36026;45.478;9.224;2022-12-07T11:57:31;29.92;;;21.02;;
50128;SDS011;36026;45.478;9.224;2022-12-07T12:00:36;29.95;;;20.00;;
50128;SDS011;36026;45.478;9.224;2022-12-07T12:03:40;27.13;;;18.85;;
50128;SDS011;36026;45.478;9.224;2022-12-07T12:06:44;29.20;;;19.48;;
50128;SDS011;36026;45.478;9.224;2022-12-07T12:09:48;29.33;;;19.88;;
50128;SDS011;36026;45.478;9.224;2022-12-07T12:12:59;27.55;;;19.45;;
50128;SDS011;36026;45.478;9.224;2022-12-07T12:16:11;26.20;;;19.45;;
50128;SDS011;36026;45.478;9.224;2022-12-07T12:19:25;27.57;;;18.90;;
50128;SDS011;36026;45.478;9.224;2022-12-07T12:22:35;28.95;;;18.88;;
50128;SDS011;36026;45.478;9.224;2022-12-07T12:25:40;29.48;;;17.98;;
50128;SDS011;36026;45.478;9.224;2022-12-07T12:28:50;31.92;;;20.65;;
50128;SDS011;36026;45.478;9.224;2022-12-07T12:32:07;30.77;;;19.58;;
50128;SDS011;36026;45.478;9.224;2022-12-07T12:35:20;29.08;;;20.10;;
50128;SDS011;36026;45.478;9.224;2022-12-07T12:38:33;29.90;;;20.38;;
50128;SDS011;36026;45.478;9.224;2022-12-07T12:41:51;30.70;;;20.42;;
50128;SDS011;36026;45.478;9.224;2022-12-07T12:45:21;28.40;;;19.80;;
50128;SDS011;36026;45.478;9.224;2022-12-07T12:48:27;28.92;;;19.02;;
50128;SDS011;36026;45.478;9.224;2022-12-07T12:51:36;31.73;;;20.17;;
50128;SDS011;36026;45.478;9.224;2022-12-07T12:54:41;28.50;;;19.27;;
50128;SDS011;36026;45.478;9.224;2022-12-07T13:01:43;31.60;;;20.50;;
50128;SDS011;36026;45.478;9.224;2022-12-07T13:04:51;34.35;;;20.90;;
50128;SDS011;36026;45.478;9.224;2022-12-07T13:07:55;32.53;;;22.13;;
50128;SDS011;36026;45.478;9.224;2022-12-07T13:11:15;27.42;;;20.00;;
50128;SDS011;36026;45.478;9.224;2022-12-07T13:18:00;30.15;;;22.17;;
50128;SDS011;36026;45.478;9.224;2022-12-07T13:21:38;26.77;;;19.17;;
50128;SDS011;36026;45.478;9.224;2022-12-07T13:24:44;27.75;;;20.23;;
50128;SDS011;36026;45.478;9.224;2022-12-07T13:27:48;30.53;;;21.10;;
50128;SDS011;36026;45.478;9.224;2022-12-07T13:30:58;27.77;;;20.83;;
50128;SDS011;36026;45.478;9.224;2022-12-07T13:34:02;31.42;;;20.58;;
50128;SDS011;36026;45.478;9.224;2022-12-07T13:37:10;29.52;;;20.55;;
50128;SDS011;36026;45.478;9.224;2022-12-07T13:40:17;30.95;;;21.48;;
50128;SDS011;36026;45.478;9.224;2022-12-07T13:43:20;155.88;;;29.25;;
50128;SDS011;36026;45.478;9.224;2022-12-07T13:46:25;37.25;;;20.92;;
50128;SDS011;36026;45.478;9.224;2022-12-07T13:49:29;27.08;;;19.75;;
50128;SDS011;36026;45.478;9.224;2022-12-07T13:52:32;26.92;;;18.85;;
50128;SDS011;36026;45.478;9.224;2022-12-07T13:55:34;25.40;;;19.43;;
50128;SDS011;36026;45.478;9.224;2022-12-07T13:58:36;25.88;;;18.80;;
50128;SDS011;36026;45.478;9.224;2022-12-07T14:01:37;26.95;;;20.08;;
50128;SDS011;36026;45.478;9.224;2022-12-07T14:04:39;28.05;;;19.45;;
50128;SDS011;36026;45.478;9.224;2022-12-07T14:07:52;29.83;;;20.92;;
50128;SDS011;36026;45.478;9.224;2022-12-07T14:10:56;33.03;;;21.83;;
50128;SDS011;36026;45.478;9.224;2022-12-07T14:13:59;32.92;;;21.65;;
50128;SDS011;36026;45.478;9.224;2022-12-07T14:17:08;30.42;;;20.65;;
50128;SDS011;36026;45.478;9.224;2022-12-07T14:20:28;30.13;;;21.42;;
50128;SDS011;36026;45.478;9.224;2022-12-07T14:23:32;34.55;;;21.45;;
50128;SDS011;36026;45.478;9.224;2022-12-07T14:26:34;34.42;;;22.88;;
50128;SDS011;36026;45.478;9.224;2022-12-07T14:29:35;32.95;;;23.10;;
50128;SDS011;36026;45.478;9.224;2022-12-07T14:32:38;31.90;;;21.90;;
50128;SDS011;36026;45.478;9.224;2022-12-07T14:35:41;34.13;;;22.90;;
50128;SDS011;36026;45.478;9.224;2022-12-07T14:38:44;35.75;;;24.48;;
50128;SDS011;36026;45.478;9.224;2022-12-07T14:41:45;36.15;;;23.70;;
50128;SDS011;36026;45.478;9.224;2022-12-07T14:44:53;38.65;;;24.80;;
50128;SDS011;36026;45.478;9.224;2022-12-07T14:47:55;38.15;;;24.13;;
50128;SDS011;36026;45.478;9.224;2022-12-07T14:50:56;45.97;;;24.55;;
50128;SDS011;36026;45.478;9.224;2022-12-07T14:53:59;35.58;;;23.65;;
50128;SDS011;36026;45.478;9.224;2022-12-07T14:57:01;44.55;;;22.48;;
50128;SDS011;36026;45.478;9.224;2022-12-07T15:00:03;29.85;;;20.40;;
50128;SDS011;36026;45.478;9.224;2022-12-07T15:03:06;32.72;;;20.33;;
50128;SDS011;36026;45.478;9.224;2022-12-07T15:06:10;35.58;;;18.70;;
50128;SDS011;36026;45.478;9.224;2022-12-07T15:24:25;36.33;;;24.30;;
50128;SDS011;36026;45.478;9.224;2022-12-07T15:27:27;30.33;;;18.00;;
50128;SDS011;36026;45.478;9.224;2022-12-07T15:30:29;27.15;;;17.08;;
50128;SDS011;36026;45.478;9.224;2022-12-07T15:33:31;27.73;;;17.08;;
50128;SDS011;36026;45.478;9.224;2022-12-07T15:36:33;25.73;;;17.10;;
50128;SDS011;36026;45.478;9.224;2022-12-07T15:39:36;27.35;;;16.33;;
50128;SDS011;36026;45.478;9.224;2022-12-07T15:42:39;26.13;;;17.10;;
50128;SDS011;36026;45.478;9.224;2022-12-07T15:45:40;28.00;;;16.42;;
50128;SDS011;36026;45.478;9.224;2022-12-07T15:48:41;27.20;;;17.20;;
50128;SDS011;36026;45.478;9.224;2022-12-07T15:51:43;26.88;;;16.60;;
50128;SDS011;36026;45.478;9.224;2022-12-07T15:54:46;27.00;;;17.65;;
50128;SDS011;36026;45.478;9.224;2022-12-07T15:57:48;27.20;;;17.23;;
50128;SDS011;36026;45.478;9.224;2022-12-07T16:00:50;27.33;;;18.20;;
50128;SDS011;36026;45.478;9.224;2022-12-07T16:03:52;27.80;;;18.13;;
50128;SDS011;36026;45.478;9.224;2022-12-07T16:06:54;26.02;;;17.30;;
50128;SDS011;36026;45.478;9.224;2022-12-07T16:09:57;25.55;;;17.75;;
50128;SDS011;36026;45.478;9.224;2022-12-07T16:12:59;27.55;;;17.65;;
50128;SDS011;36026;45.478;9.224;2022-12-07T16:16:02;26.27;;;17.13;;
50128;SDS011;36026;45.478;9.224;2022-12-07T16:19:04;29.85;;;17.63;;
50128;SDS011;36026;45.478;9.224;2022-12-07T16:22:05;27.58;;;16.80;;
50128;SDS011;36026;45.478;9.224;2022-12-07T16:25:09;25.02;;;16.65;;
50128;SDS011;36026;45.478;9.224;2022-12-07T16:28:10;23.48;;;16.63;;
50128;SDS011;36026;45.478;9.224;2022-12-07T16:31:13;26.65;;;17.05;;
50128;SDS011;36026;45.478;9.224;2022-12-07T16:34:16;28.48;;;17.88;;
50128;SDS011;36026;45.478;9.224;2022-12-07T16:37:18;27.08;;;17.85;;
50128;SDS011;36026;45.478;9.224;2022-12-07T16:40:21;29.10;;;18.40;;
50128;SDS011;36026;45.478;9.224;2022-12-07T16:43:23;29.95;;;18.30;;
50128;SDS011;36026;45.478;9.224;2022-12-07T16:46:24;25.77;;;18.08;;
50128;SDS011;36026;45.478;9.224;2022-12-07T16:49:26;25.33;;;18.25;;
50128;SDS011;36026;45.478;9.224;2022-12-07T16:52:27;32.33;;;18.98;;
50128;SDS011;36026;45.478;9.224;2022-12-07T16:55:31;29.27;;;20.50;;
50128;SDS011;36026;45.478;9.224;2022-12-07T16:58:33;32.35;;;20.20;;
50128;SDS011;36026;45.478;9.224;2022-12-07T17:01:35;28.58;;;19.83;;
50128;SDS011;36026;45.478;9.224;2022-12-07T17:04:37;29.55;;;20.88;;
50128;SDS011;36026;45.478;9.224;2022-12-07T17:07:39;31.48;;;21.00;;
50128;SDS011;36026;45.478;9.224;2022-12-07T17:10:43;32.10;;;20.73;;
50128;SDS011;36026;45.478;9.224;2022-12-07T17:13:45;28.35;;;19.08;;
50128;SDS011;36026;45.478;9.224;2022-12-07T17:17:04;29.15;;;20.00;;
50128;SDS011;36026;45.478;9.224;2022-12-07T17:20:06;28.90;;;20.92;;
50128;SDS011;36026;45.478;9.224;2022-12-07T17:23:08;28.58;;;19.80;;
50128;SDS011;36026;45.478;9.224;2022-12-07T17:26:12;28.48;;;20.30;;
50128;SDS011;36026;45.478;9.224;2022-12-07T17:29:15;30.88;;;20.77;;
50128;SDS011;36026;45.478;9.224;2022-12-07T17:32:18;30.35;;;20.17;;
50128;SDS011;36026;45.478;9.224;2022-12-07T17:35:20;31.30;;;21.33;;
50128;SDS011;36026;45.478;9.224;2022-12-07T17:38:22;31.90;;;21.38;;
50128;SDS011;36026;45.478;9.224;2022-12-07T17:41:25;34.22;;;21.45;;
50128;SDS011;36026;45.478;9.224;2022-12-07T17:44:45;32.75;;;22.05;;
50128;SDS011;36026;45.478;9.224;2022-12-07T17:47:47;30.58;;;21.35;;
50128;SDS011;36026;45.478;9.224;2022-12-07T17:50:49;37.13;;;21.25;;
50128;SDS011;36026;45.478;9.224;2022-12-07T17:54:08;32.20;;;21.95;;
50128;SDS011;36026;45.478;9.224;2022-12-07T17:57:11;36.53;;;23.25;;
50128;SDS011;36026;45.478;9.224;2022-12-07T18:00:13;36.30;;;23.83;;
50128;SDS011;36026;45.478;9.224;2022-12-07T18:03:16;35.33;;;23.40;;
50128;SDS011;36026;45.478;9.224;2022-12-07T18:06:18;33.90;;;22.10;;
50128;SDS011;36026;45.478;9.224;2022-12-07T18:09:19;40.22;;;22.48;;
50128;SDS011;36026;45.478;9.224;2022-12-07T18:12:23;36.85;;;23.35;;
50128;SDS011;36026;45.478;9.224;2022-12-07T18:15:25;37.80;;;22.58;;
50128;SDS011;36026;45.478;9.224;2022-12-07T18:18:27;38.63;;;23.50;;
50128;SDS011;36026;45.478;9.224;2022-12-07T18:21:29;36.78;;;22.70;;
50128;SDS011;36026;45.478;9.224;2022-12-07T18:24:31;37.30;;;23.90;;
50128;SDS011;36026;45.478;9.224;2022-12-07T18:27:34;37.25;;;23.60;;
50128;SDS011;36026;45.478;9.224;2022-12-07T18:30:35;36.38;;;23.33;;
50128;SDS011;36026;45.478;9.224;2022-12-07T18:33:37;40.50;;;22.77;;
50128;SDS011;36026;45.478;9.224;2022-12-07T18:36:39;38.75;;;22.88;;
50128;SDS011;36026;45.478;9.224;2022-12-07T18:39:42;40.67;;;24.42;;
50128;SDS011;36026;45.478;9.224;2022-12-07T18:42:45;41.03;;;23.77;;
50128;SDS011;36026;45.478;9.224;2022-12-07T18:45:47;40.70;;;23.88;;
50128;SDS011;36026;45.478;9.224;2022-12-07T18:48:49;42.70;;;25.50;;